Terminal Aerodrome Forecast
Issued by NWS

Home | Current Version | Previous Version | Text Only | Print | Product List | Glossary On
Versions: 1 2 3 4 5 6 7 8 9 10 11 12 13
000
FTUS44 KOUN 290904 AAA
TAFHBR
TAF AMD
KHBR 290904Z 2909/3006 05014G22KT P6SM VCTS SCT020 OVC040CB
      TEMPO 2909/2912 VRB40KT 1SM +TSRA BR OVC020CB
     FM291600 36019G28KT 5SM BR OVC008
     FM292100 01016G25KT P6SM OVC012
     FM300000 35016G22KT 4SM -DZ BR OVC006=

USA.gov is the U.S. government's official web portal to all federal, state and local government web resources and services.